Flight Track Log - Related Links

Times and Time Zones

All times are in EDT time to prevent confusion due to time zone crossing. See the SWA279 flight status page for this flight to view local times or setup timezone preferences in your user account.

Time Position Orientation Groundspeed Altitude Reporting Facility
EDT Latitude Longitude Course Direction KTS MPH feet Rate Location/Type
Mon 03:47:23 PM 29.6119 -95.2631 179° South 156 180 2,000  Level Houston Center
Mon 03:48:14 PM 29.5806 -95.2950 222° Southwest 206 237 3,700 2,508 Climbing Houston Center
Mon 03:49:25 PM 29.5344 -95.3781 237° Southwest 278 320 7,100 3,045 Climbing Houston Center
Mon 03:50:26 PM 29.5694 -95.4628 295° West 289 333 10,400 2,296 Climbing Houston Center
Mon 03:51:20 PM 29.6069 -95.5403 299° West 311 358 11,500 2,224 Climbing Houston Center
Mon 03:52:22 PM 29.6572 -95.6411 300° West 354 407 14,700 2,806 Climbing Houston Center
Mon 03:53:24 PM 29.7075 -95.7428 300° West 363 418 17,300 2,448 Climbing Houston Center
Mon 03:54:27 PM 29.7603 -95.8500 300° West 382 440 19,800 2,352 Climbing Houston Center
Mon 03:55:29 PM 29.8139 -95.9600 299° West 393 452 22,200 2,516 Climbing Houston Center
Mon 03:56:31 PM 29.8767 -96.0869 300° West 406 467 25,000 2,081 Climbing Houston Center
Mon 03:57:33 PM 29.9303 -96.2025 298° West 410 472 26,500 1,500 Climbing Houston Center
Mon 03:58:35 PM 29.9428 -96.3356 276° West 415 478 28,100 1,645 Climbing Houston Center
Mon 03:59:37 PM 29.9508 -96.4703 274° West 422 486 29,900 2,032 Climbing Houston Center
Mon 04:00:39 PM 29.9697 -96.6300 278° West 422 486 32,300 1,887 Climbing Houston Center
Mon 04:01:41 PM 29.9969 -96.7600 284° West 421 484 33,800 1,500 Climbing Houston Center
Mon 04:02:43 PM 30.0231 -96.8875 283° West 414 476 35,400 1,824 Climbing Houston Center
Mon 04:03:46 PM 30.0497 -97.0119 284° West 404 465 37,600 1,248 Climbing Houston Center
Mon 04:04:48 PM 30.0747 -97.1289 284° West 382 440 38,000 194 Climbing Houston Center
Mon 04:05:50 PM 30.1011 -97.2611 283° West 386 444 38,000  Level Houston Center
Mon 04:06:52 PM 30.1256 -97.3822 283° West 384 442 38,000  Level Houston Center
Mon 04:07:54 PM 30.1497 -97.5053 283° West 385 443 38,000  Level Houston Center
Mon 04:08:56 PM 30.1789 -97.6472 283° West 387 445 38,000  Level Houston Center
Mon 04:09:58 PM 30.2036 -97.7683 283° West 385 443 38,000  Level Houston Center
Mon 04:11:00 PM 30.2286 -97.8933 283° West 385 443 38,000  Level Houston Center
Mon 04:12:03 PM 30.2542 -98.0228 283° West 383 441 38,000  Level Houston Center
Mon 04:13:05 PM 30.2781 -98.1442 283° West 388 447 38,000  Level Houston Center
Mon 04:14:07 PM 30.3031 -98.2736 283° West 385 443 38,000  Level Houston Center
Mon 04:15:09 PM 30.3267 -98.3786 285° West 385 443 38,000  Level Houston Center
Mon 04:16:11 PM 30.3586 -98.5211 285° West 388 447 38,000  Level Houston Center
Mon 04:17:13 PM 30.3850 -98.6433 284° West 387 445 38,000  Level Houston Center
Mon 04:18:15 PM 30.4128 -98.7658 285° West 390 449 38,000  Level Houston Center
Mon 04:19:17 PM 30.4397 -98.8883 284° West 388 447 38,000  Level Houston Center
Mon 04:20:19 PM 30.4667 -99.0128 284° West 393 452 38,000  Level Houston Center
Mon 04:21:22 PM 30.4975 -99.1497 285° West 396 456 38,000  Level Houston Center
Mon 04:22:24 PM 30.5225 -99.2725 283° West 394 453 38,000  Level Houston Center
Mon 04:23:26 PM 30.5503 -99.3947 285° West 393 452 38,000  Level Houston Center
Mon 04:24:28 PM 30.5753 -99.5164 283° West 391 450 38,000  Level Houston Center
Mon 04:25:30 PM 30.6014 -99.6383 284° West 392 451 38,000  Level Houston Center
Mon 04:26:32 PM 30.6317 -99.7856 283° West 393 452 38,000  Level Houston Center
Mon 04:27:34 PM 30.6581 -99.9086 284° West 395 455 38,000  Level Houston Center
Mon 04:28:36 PM 30.6828 -100.0297 283° West 390 449 38,000  Level Houston Center
Mon 04:29:38 PM 30.7075 -100.1506 283° West 388 447 38,000  Level Houston Center
Mon 04:30:41 PM 30.7336 -100.2747 284° West 396 456 38,000  Level Houston Center
Mon 04:31:43 PM 30.7636 -100.4253 283° West 401 461 38,000  Level Houston Center
Mon 04:32:45 PM 30.7900 -100.5497 284° West 398 458 38,000  Level Houston Center
Mon 04:33:47 PM 30.8150 -100.6767 283° West 402 463 38,000  Level Houston Center
Mon 04:34:49 PM 30.8389 -100.8000 283° West 396 456 38,000  Level Houston Center
Mon 04:35:51 PM 30.8639 -100.9247 283° West 399 459 38,000  Level Houston Center
Mon 04:36:53 PM 30.8936 -101.0736 283° West 397 457 38,000  Level Houston Center
Mon 04:37:55 PM 30.9200 -101.1928 285° West 389 448 38,000  Level Houston Center
Mon 04:38:58 PM 30.9453 -101.3233 283° West 390 449 38,000  Level Houston Center
Mon 04:40:00 PM 30.9686 -101.4478 282° West 393 452 38,000  Level Houston Center
Mon 04:40:19 PM 30.9742 -101.4708 286° West 393 452 38,000  Level Albuquerque Center
Mon 04:41:21 PM 31.0028 -101.6203 283° West 394 453 38,000  Level Albuquerque Center
Mon 04:42:23 PM 31.0261 -101.7447 282° West 394 453 38,000  Level Albuquerque Center
Mon 04:43:24 PM 31.0508 -101.8706 283° West 398 458 38,000  Level Albuquerque Center
Mon 04:44:26 PM 31.0731 -101.9911 282° West 409 471 38,000  Level Albuquerque Center
Mon 04:45:28 PM 31.1019 -102.1433 283° West 402 463 38,000  Level Albuquerque Center
Mon 04:46:30 PM 31.1258 -102.2711 282° West 403 464 38,000  Level Albuquerque Center
Mon 04:47:32 PM 31.1500 -102.3992 282° West 404 465 38,000  Level Albuquerque Center
Mon 04:48:34 PM 31.1736 -102.5275 282° West 404 465 38,000  Level Albuquerque Center
Mon 04:49:36 PM 31.2006 -102.6694 283° West 397 457 38,000  Level Albuquerque Center
Mon 04:50:38 PM 31.2233 -102.7975 282° West 400 460 38,000  Level Albuquerque Center
Mon 04:51:40 PM 31.2475 -102.9225 283° West 398 458 38,000  Level Albuquerque Center
Mon 04:52:42 PM 31.2700 -103.0492 282° West 399 459 38,000  Level Albuquerque Center
Mon 04:53:44 PM 31.2922 -103.1756 282° West 398 458 38,000  Level Albuquerque Center
Mon 04:54:46 PM 31.3153 -103.2992 282° West 392 451 38,000  Level Albuquerque Center
Mon 04:55:48 PM 31.3361 -103.4242 281° West 391 450 38,000  Level Albuquerque Center
Mon 04:56:50 PM 31.3631 -103.5772 282° West 398 458 38,000  Level Albuquerque Center
Mon 04:57:52 PM 31.3853 -103.7050 282° West 401 461 38,000  Level Albuquerque Center
Mon 04:58:54 PM 31.4094 -103.8342 282° West 401 461 38,000  Level Albuquerque Center
Mon 04:59:56 PM 31.4325 -103.9617 282° West 401 461 38,000  Level Albuquerque Center
Mon 05:00:58 PM 31.4608 -104.0886 285° West 402 463 38,000  Level Albuquerque Center
Mon 05:02:00 PM 31.4969 -104.2150 289° West 406 467 38,000 -48 Level Albuquerque Center
Mon 05:03:02 PM 31.5375 -104.3653 288° West 406 467 37,900 -48 Descending Albuquerque Center
Mon 05:04:04 PM 31.5703 -104.4911 287° West 406 467 37,900 49 Level Albuquerque Center
Mon 05:05:05 PM 31.6033 -104.6181 287° West 407 468 38,000 49 Climbing Albuquerque Center
Mon 05:06:07 PM 31.6369 -104.7447 287° West 408 470 38,000  Level Albuquerque Center
Mon 05:07:09 PM 31.6692 -104.8686 287° West 406 467 38,000  Level Albuquerque Center
Mon 05:08:11 PM 31.7025 -104.9969 287° West 410 472 38,000 -48 Level Albuquerque Center
Mon 05:09:13 PM 31.7419 -105.1497 287° West 410 472 37,900  Descending Albuquerque Center
Mon 05:10:15 PM 31.7750 -105.2736 287° West 405 466 38,000 48 Climbing Albuquerque Center
Mon 05:11:17 PM 31.8056 -105.4033 286° West 414 476 38,000  Level Albuquerque Center
Mon 05:12:19 PM 31.8381 -105.5281 287° West 404 465 38,000  Level Albuquerque Center
Mon 05:13:21 PM 31.8694 -105.6533 286° West 403 464 38,000  Level Albuquerque Center
Mon 05:14:23 PM 31.9078 -105.8022 287° West 398 458 38,000  Level Albuquerque Center
Mon 05:15:25 PM 31.9389 -105.9275 286° West 401 461 38,000 -48 Level Albuquerque Center
Mon 05:16:27 PM 31.9722 -106.0561 287° West 404 465 37,900  Descending Albuquerque Center
Mon 05:17:29 PM 32.0042 -106.1831 287° West 404 465 38,000 49 Climbing Albuquerque Center
Mon 05:18:30 PM 32.0356 -106.3092 286° West 403 464 38,000  Level Albuquerque Center
Mon 05:19:32 PM 32.0669 -106.4369 286° West 406 467 38,000  Level Albuquerque Center
Mon 05:20:34 PM 32.0981 -106.5636 286° West 404 465 38,000  Level Albuquerque Center
Mon 05:21:36 PM 32.1303 -106.6922 287° West 408 470 38,000  Level Albuquerque Center
Mon 05:22:38 PM 32.1681 -106.8467 286° West 408 470 38,000  Level Albuquerque Center
Mon 05:23:40 PM 32.1997 -106.9778 286° West 408 470 38,000  Level Albuquerque Center
Mon 05:24:42 PM 32.2322 -107.1144 286° West 403 464 38,000  Level Albuquerque Center
Mon 05:25:44 PM 32.2617 -107.2444 285° West 407 468 38,000  Level Albuquerque Center
Mon 05:26:46 PM 32.2906 -107.3731 285° West 408 470 38,000  Level Albuquerque Center
Mon 05:27:48 PM 32.3206 -107.4989 286° West 404 465 38,000  Level Albuquerque Center
Mon 05:28:50 PM 32.3511 -107.6194 287° West 398 458 38,000  Level Albuquerque Center
Mon 05:29:52 PM 32.3806 -107.7467 285° West 399 459 38,000  Level Albuquerque Center
Mon 05:30:54 PM 32.4150 -107.8994 285° West 400 460 38,000  Level Albuquerque Center
Mon 05:31:56 PM 32.4450 -108.0297 285° West 405 466 38,000  Level Albuquerque Center
Mon 05:32:57 PM 32.4764 -108.1600 286° West 412 474 38,000  Level Albuquerque Center
Mon 05:33:59 PM 32.5053 -108.2875 285° West 407 468 38,000  Level Albuquerque Center
Mon 05:35:01 PM 32.5347 -108.4153 285° West 406 467 38,000  Level Albuquerque Center
Mon 05:36:03 PM 32.5633 -108.5419 285° West 403 464 38,000  Level Albuquerque Center
Mon 05:37:05 PM 32.5983 -108.6964 285° West 405 466 38,000  Level Albuquerque Center
Mon 05:38:07 PM 32.6278 -108.8250 285° West 405 466 38,000  Level Albuquerque Center
Mon 05:39:09 PM 32.6553 -108.9531 284° West 403 464 38,000  Level Albuquerque Center
Mon 05:40:10 PM 32.6847 -109.0819 285° West 404 465 38,000  Level Albuquerque Center
Mon 05:41:12 PM 32.7122 -109.2106 284° West 403 464 38,000  Level Albuquerque Center
Mon 05:42:14 PM 32.7419 -109.3394 285° West 404 465 38,000  Level Albuquerque Center
Mon 05:43:16 PM 32.7756 -109.4931 285° West 404 465 38,000  Level Albuquerque Center
Mon 05:44:18 PM 32.8033 -109.6217 284° West 403 464 38,000  Level Albuquerque Center
Mon 05:45:20 PM 32.8306 -109.7492 284° West 402 463 38,000  Level Albuquerque Center
Mon 05:46:21 PM 32.8581 -109.8769 284° West 403 464 38,000  Level Albuquerque Center
Mon 05:47:23 PM 32.8853 -110.0044 284° West 402 463 38,000  Level Albuquerque Center
Mon 05:48:25 PM 32.9142 -110.1328 285° West 403 464 38,000  Level Albuquerque Center
Mon 05:49:26 PM 32.9481 -110.2847 285° West 401 461 38,000  Level Albuquerque Center
Mon 05:50:28 PM 32.9753 -110.4144 284° West 404 465 38,000  Level Albuquerque Center
Mon 05:51:30 PM 33.0017 -110.5417 284° West 402 463 38,000  Level Albuquerque Center
Mon 05:52:31 PM 33.0297 -110.6744 284° West 402 463 38,000  Level Albuquerque Center
Mon 05:53:33 PM 33.0572 -110.8039 284° West 402 463 38,000  Level Albuquerque Center
Mon 05:54:35 PM 33.0828 -110.9331 283° West 401 461 38,000  Level Albuquerque Center
Mon 05:55:36 PM 33.1092 -111.0619 284° West 400 460 38,000  Level Albuquerque Center
Mon 05:56:38 PM 33.1356 -111.1897 284° West 397 457 38,000  Level Albuquerque Center
Mon 05:57:40 PM 33.1750 -111.3442 287° West 406 467 38,000  Level Albuquerque Center
Mon 05:58:41 PM 33.2114 -111.4711 289° West 404 465 38,000  Level Albuquerque Center
Mon 05:59:43 PM 33.2489 -111.5997 289° West 409 471 38,000  Level Albuquerque Center
Mon 06:00:44 PM 33.2861 -111.7253 290° West 401 461 38,000  Level Albuquerque Center
Mon 06:01:46 PM 33.3233 -111.8511 290° West 402 463 38,000  Level Albuquerque Center
Mon 06:02:48 PM 33.3589 -111.9783 289° West 402 463 38,000  Level Albuquerque Center
Mon 06:03:50 PM 33.3950 -112.1056 289° West 402 463 38,000  Level Albuquerque Center
Mon 06:04:51 PM 33.4322 -112.2314 290° West 401 461 38,000  Level Albuquerque Center
Mon 06:05:53 PM 33.4675 -112.3592 288° West 402 463 38,000  Level Albuquerque Center
Mon 06:06:54 PM 33.5103 -112.5103 289° West 399 459 38,000  Level Albuquerque Center
Mon 06:07:56 PM 33.5414 -112.6217 289° West 402 463 38,000  Level Albuquerque Center
Mon 06:08:58 PM 33.5764 -112.7456 289° West 397 457 38,000  Level Albuquerque Center
Mon 06:09:59 PM 33.6189 -112.8953 289° West 397 457 38,000  Level Albuquerque Center
Mon 06:11:01 PM 33.6508 -113.0139 288° West 398 458 38,000  Level Albuquerque Center
Mon 06:12:02 PM 33.6869 -113.1400 289° West 398 458 38,000  Level Albuquerque Center
Mon 06:13:04 PM 33.7214 -113.2661 288° West 399 459 38,000  Level Albuquerque Center
Mon 06:14:06 PM 33.7564 -113.3914 289° West 397 457 38,000  Level Albuquerque Center
Mon 06:15:07 PM 33.7961 -113.5431 288° West 397 457 38,000  Level Albuquerque Center
Mon 06:16:09 PM 33.8311 -113.6675 289° West 395 455 38,000  Level Albuquerque Center
Mon 06:17:11 PM 33.8642 -113.7919 288° West 392 451 38,000  Level Albuquerque Center
Mon 06:18:13 PM 33.8797 -113.9208 278° West 391 450 38,000  Level Albuquerque Center
Mon 06:19:14 PM 33.8986 -114.0475 280° West 387 445 38,000  Level Albuquerque Center
Mon 06:20:16 PM 33.9150 -114.1764 279° West 388 447 38,000  Level Albuquerque Center
Mon 06:21:18 PM 33.9339 -114.3064 280° West 386 444 38,000  Level Albuquerque Center
Mon 06:22:19 PM 33.9492 -114.4344 278° West 387 445 38,000  Level Albuquerque Center
Mon 06:23:21 PM 33.9650 -114.5617 279° West 385 443 38,000  Level Albuquerque Center
Mon 06:24:34 PM 33.9861 -114.7261 279° West 383 441 38,000  Level Los Center
Mon 06:25:36 PM 34.0017 -114.8506 279° West 379 436 38,000  Level Los Center
Mon 06:26:38 PM 34.0208 -115.0028 279° West 384 442 38,000  Level Los Center
Mon 06:27:40 PM 34.0369 -115.1283 279° West 382 440 38,000  Level Los Center
Mon 06:28:42 PM 34.0506 -115.2564 277° West 385 443 38,000  Level Los Center
Mon 06:29:44 PM 34.0672 -115.3836 279° West 385 443 38,000  Level Los Center
Mon 06:30:45 PM 34.0819 -115.5128 278° West 389 448 38,000  Level Los Center
Mon 06:31:47 PM 34.0936 -115.6139 278° West 386 444 38,000  Level Los Center
Mon 06:32:49 PM 34.1089 -115.7928 276° West 383 441 38,000  Level Los Center
Mon 06:33:51 PM 34.0900 -115.9178 260° West 383 441 38,000 -387 Level Los Center
Mon 06:34:53 PM 34.0717 -116.0444 260° West 383 441 37,200 -1,452 Descending Los Center
Mon 06:35:55 PM 34.0522 -116.1725 260° West 388 447 35,000 -2,516 Descending Los Center
Mon 06:36:57 PM 34.0333 -116.3028 260° West 395 455 32,000 -2,613 Descending Los Center
Mon 06:37:59 PM 34.0131 -116.4339 259° West 398 458 29,600 -2,294 Descending Los Center
Mon 06:39:13 PM 33.9967 -116.5894 263° West 393 452 26,800 -2,471 Descending Los Center
Mon 06:40:15 PM 33.9858 -116.7372 265° West 375 432 24,000 -2,400 Descending Los Center
Mon 06:41:18 PM 33.9761 -116.8564 264° West 362 417 21,800 -2,227 Descending Los Center
Mon 06:41:52 PM 33.9667 -116.9333 262° West 336 387 20,400 -2,225 Descending Southern TRACON
Mon 06:42:47 PM 33.9667 -117.0333 270° West 324 373 18,500 -1,826 Descending Southern TRACON
Mon 06:43:47 PM 33.9500 -117.1333 259° West 320 368 16,900 -714 Descending Southern TRACON
Mon 06:44:53 PM 33.9500 -117.2500 270° West 316 364 17,000 -450 Climbing Southern TRACON
Mon 06:45:47 PM 33.9333 -117.3500 259° West 310 357 16,000 -1,250 Descending Southern TRACON
Mon 06:46:53 PM 33.9500 -117.4500 281° West 280 322 14,500 -1,550 Descending Southern TRACON
Mon 06:47:47 PM 33.9833 -117.5333 296° West 275 316 12,900 -1,650 Descending Southern TRACON
Mon 06:48:53 PM 34.0167 -117.6167 296° West 332 382 11,200 -1,429 Descending Southern TRACON
Mon 06:49:53 PM 34.0167 -117.7000 270° West 251 289 9,900 -1,250 Descending Southern TRACON
Mon 06:50:53 PM 34.0167 -117.8000 270° West 254 292 8,700 -1,211 Descending Southern TRACON
Mon 06:51:47 PM 34.0000 -117.8667 253° West 255 293 7,600 -1,158 Descending Southern TRACON
Mon 06:52:47 PM 34.0000 -117.9500 270° West 257 296 6,500 -1,143 Descending Southern TRACON
Mon 06:53:53 PM 33.9833 -118.0500 259° West 268 308 5,200 -950 Descending Southern TRACON
Mon 06:54:47 PM 33.9833 -118.1167 270° West 242 278 4,600 -672 Descending Southern TRACON
Mon 06:55:58 PM 33.9725 -118.2039 262° West 238 274 3,800 -902 Descending Los Center
Mon 06:57:00 PM 33.9650 -118.2836 264° West 213 245 2,600 -1,065 Descending Los Center
Mon 06:58:02 PM 33.9586 -118.3431 263° West 196 226 1,600 -1,016 Descending Los Center
Mon 06:59:04 PM 33.9544 -118.3881 264° West 158 182 500 -677 Descending Los Center
Mon 07:00:06 PM 33.9494 -118.4289 262° West 150 173 200 -290 Descending Los Center
Mon 07:02:00 PM 33.9425 -118.4081 90° East  Level Estimated

Login

Don't have an account? Register now (free) for customized features, flight alerts, and more!